createdAt,value
2022-09-02T00:00:34.532Z,100.00
2022-09-02T00:15:23.342Z,100.00
2022-09-02T00:30:23.391Z,100.00
2022-09-02T00:45:23.544Z,100.00
2022-09-02T01:00:46.830Z,100.00
2022-09-02T01:15:23.560Z,100.00
2022-09-02T01:30:27.596Z,100.00
2022-09-02T01:45:23.619Z,100.00
2022-09-02T02:00:23.528Z,100.00
2022-09-02T02:15:33.847Z,100.00
2022-09-02T02:30:23.545Z,100.00
2022-09-02T02:45:23.628Z,100.00
2022-09-02T03:00:26.469Z,100.00
2022-09-02T03:15:24.101Z,100.00
2022-09-02T03:30:25.298Z,100.00
2022-09-02T03:45:23.766Z,100.00
2022-09-02T04:00:26.967Z,100.00
2022-09-02T04:15:23.796Z,100.00
2022-09-02T04:30:23.779Z,100.00
2022-09-02T04:45:29.124Z,100.00
2022-09-02T05:00:26.373Z,100.00
2022-09-02T05:15:23.797Z,100.00
2022-09-02T05:30:23.858Z,100.00
2022-09-02T05:45:23.905Z,100.00
2022-09-02T06:00:25.296Z,100.00
2022-09-02T06:15:24.252Z,100.00
2022-09-02T06:30:23.874Z,100.00
2022-09-02T06:45:23.988Z,100.00
2022-09-02T07:00:42.201Z,100.00
2022-09-02T07:15:24.285Z,100.00
2022-09-02T07:30:24.147Z,100.00
2022-09-02T07:45:24.206Z,93.80
2022-09-02T08:00:26.214Z,96.00
2022-09-02T08:15:25.659Z,100.00
2022-09-02T08:30:27.123Z,100.00
2022-09-02T08:45:24.175Z,100.00
2022-09-02T09:00:50.632Z,100.00
2022-09-02T09:15:24.304Z,100.00
2022-09-02T09:30:39.645Z,85.15
2022-09-02T09:45:24.350Z,75.30
2022-09-02T10:00:53.454Z,72.30
2022-09-02T10:15:24.326Z,70.27
2022-09-02T10:30:33.356Z,73.00
2022-09-02T10:45:33.416Z,66.37
2022-09-02T11:00:33.377Z,68.67
2022-09-02T11:15:23.814Z,63.17
2022-09-02T11:30:23.655Z,59.83
2022-09-02T11:45:23.409Z,57.60
2022-09-02T12:00:31.894Z,54.40
2022-09-02T12:15:23.870Z,54.63
2022-09-02T12:30:28.951Z,53.90
2022-09-02T12:45:28.193Z,56.50
2022-09-02T13:00:23.679Z,54.63
2022-09-02T13:15:23.602Z,51.43
2022-09-02T13:30:26.186Z,53.07
2022-09-02T13:45:23.706Z,53.07
2022-09-02T14:01:29.446Z,52.03
2022-09-02T14:15:23.966Z,51.90
2022-09-02T14:30:32.722Z,51.23
2022-09-02T14:45:23.897Z,50.77
2022-09-02T15:00:34.605Z,49.37
2022-09-02T15:15:23.785Z,49.87
2022-09-02T15:30:25.651Z,48.87
2022-09-02T15:45:23.649Z,52.27
2022-09-02T16:00:30.700Z,57.20
2022-09-02T16:15:23.805Z,62.80
2022-09-02T16:30:23.805Z,65.23
2022-09-02T16:45:24.048Z,59.87
2022-09-02T17:00:23.834Z,72.40
2022-09-02T17:15:23.794Z,82.80
2022-09-02T17:30:24.014Z,96.23
2022-09-02T17:45:23.971Z,99.15
2022-09-02T18:00:24.411Z,100.00
2022-09-02T18:15:24.186Z,100.00
2022-09-02T18:30:27.063Z,100.00
2022-09-02T18:45:23.995Z,100.00
2022-09-02T19:00:24.019Z,100.00
2022-09-02T19:15:23.996Z,100.00
2022-09-02T19:30:23.986Z,100.00
2022-09-02T19:45:24.111Z,100.00
2022-09-02T20:00:38.171Z,100.00
2022-09-02T20:15:24.369Z,100.00
2022-09-02T20:30:26.789Z,100.00
2022-09-02T20:45:24.064Z,100.00
2022-09-02T21:00:28.181Z,100.00
2022-09-02T21:15:24.243Z,100.00
2022-09-02T21:30:24.211Z,100.00
2022-09-02T21:45:24.351Z,100.00
2022-09-02T22:15:23.440Z,100.00
2022-09-02T22:30:23.354Z,100.00
2022-09-02T22:45:23.521Z,100.00
2022-09-02T23:00:27.341Z,100.00
2022-09-02T23:15:23.353Z,100.00
2022-09-02T23:30:23.691Z,100.00
2022-09-02T23:45:23.510Z,100.00
